Time;durP1;ratioP1;P1;durP2;ratioP2;P2;SDS_P1;SDS_P2;PMS_P1;PMS_P2;Temp;Humidity;BMP_temperature;BMP_pressure;BME280_temperature;BME280_humidity;BME280_pressure;Samples;Min_cycle;Max_cycle;Signal;HPM_P1;HPM_P2
2023/05/14 00:00:40;;;;;;;5.50;5.20;;;;;;;;;;5030979;28;20390;-88
2023/05/14 00:03:06;;;;;;;5.45;5.05;;;;;;;;;;5031378;28;20415;-87
2023/05/14 00:05:32;;;;;;;5.43;5.03;;;;;;;;;;5031569;28;20436;-87
2023/05/14 00:07:58;;;;;;;5.10;4.70;;;;;;;;;;5031451;28;20889;-87
2023/05/14 00:10:25;;;;;;;5.50;5.10;;;;;;;;;;5031762;28;20382;-87
2023/05/14 00:12:51;;;;;;;6.10;5.70;;;;;;;;;;5031637;28;20382;-87
2023/05/14 00:15:17;;;;;;;5.77;5.27;;;;;;;;;;5031262;28;20611;-88
2023/05/14 00:17:43;;;;;;;5.90;5.50;;;;;;;;;;5031675;28;20383;-88
2023/05/14 00:20:11;;;;;;;5.57;5.20;;;;;;;;;;5031824;28;20956;-87
2023/05/14 00:22:37;;;;;;;6.05;5.65;;;;;;;;;;5031467;28;20375;-87
2023/05/14 00:25:03;;;;;;;6.67;6.20;;;;;;;;;;5031746;28;20383;-87
2023/05/14 00:27:29;;;;;;;5.95;5.55;;;;;;;;;;5031323;28;20893;-87
2023/05/14 00:29:55;;;;;;;5.80;5.40;;;;;;;;;;5031723;28;20375;-87
2023/05/14 00:32:21;;;;;;;5.83;5.33;;;;;;;;;;5033691;28;20448;-88
2023/05/14 00:34:47;;;;;;;6.53;6.07;;;;;;;;;;5035519;28;20383;-87
2023/05/14 00:37:13;;;;;;;5.70;5.35;;;;;;;;;;5032426;28;20386;-87
2023/05/14 00:39:39;;;;;;;6.07;5.70;;;;;;;;;;5035573;28;20888;-88
2023/05/14 00:42:05;;;;;;;6.00;5.60;;;;;;;;;;5035186;28;20386;-87
2023/05/14 00:44:31;;;;;;;5.78;5.45;;;;;;;;;;5031462;28;20418;-86
2023/05/14 00:46:58;;;;;;;6.00;5.57;;;;;;;;;;5034100;28;20381;-86
2023/05/14 00:49:24;;;;;;;6.20;5.80;;;;;;;;;;5033953;28;20386;-86
2023/05/14 00:51:51;;;;;;;5.68;5.35;;;;;;;;;;5033795;28;20415;-86
2023/05/14 00:54:17;;;;;;;5.40;5.05;;;;;;;;;;5033988;28;20383;-86
2023/05/14 00:56:44;;;;;;;5.80;5.50;;;;;;;;;;5034092;28;20387;-86
2023/05/14 00:59:10;;;;;;;5.50;5.10;;;;;;;;;;5034064;28;20800;-86
2023/05/14 01:01:36;;;;;;;6.00;5.60;;;;;;;;;;5034221;28;20445;-86
2023/05/14 01:04:03;;;;;;;6.10;5.60;;;;;;;;;;5033098;28;20453;-85
2023/05/14 01:06:41;;;;;;;6.40;5.90;;;;;;;;;;5033628;28;20418;-85
2023/05/14 01:09:26;;;;;;;5.53;5.13;;;;;;;;;;5034998;28;20407;-86
2023/05/14 01:11:58;;;;;;;6.18;5.78;;;;;;;;;;5034943;28;20912;-85
2023/05/14 01:14:36;;;;;;;5.85;5.45;;;;;;;;;;5035019;28;20391;-86
2023/05/14 01:17:03;;;;;;;6.05;5.65;;;;;;;;;;5034870;28;20726;-86
2023/05/14 01:19:42;;;;;;;6.25;5.82;;;;;;;;;;5034871;28;20383;-86
2023/05/14 01:22:09;;;;;;;6.17;5.77;;;;;;;;;;5034852;28;20857;-86
2023/05/14 01:24:35;;;;;;;6.35;5.78;;;;;;;;;;5034584;28;20406;-86
2023/05/14 01:27:20;;;;;;;6.25;5.85;;;;;;;;;;5034934;28;20529;-86
2023/05/14 01:29:52;;;;;;;6.63;6.13;;;;;;;;;;5034718;28;20375;-86
2023/05/14 01:32:20;;;;;;;7.43;6.93;;;;;;;;;;5034643;28;20435;-86
2023/05/14 01:34:46;;;;;;;7.18;6.68;;;;;;;;;;5034444;28;20379;-86
2023/05/14 01:37:13;;;;;;;7.00;6.50;;;;;;;;;;5034473;28;20445;-86
2023/05/14 01:39:39;;;;;;;7.47;6.97;;;;;;;;;;5034732;28;20422;-86
2023/05/14 01:42:06;;;;;;;7.32;6.82;;;;;;;;;;5034491;28;20387;-86
2023/05/14 01:44:33;;;;;;;6.72;6.32;;;;;;;;;;5032057;28;20457;-86
2023/05/14 01:46:59;;;;;;;6.93;6.53;;;;;;;;;;5033872;28;20411;-87
2023/05/14 01:49:24;;;;;;;6.95;6.45;;;;;;;;;;5034057;28;20415;-86
2023/05/14 01:51:50;;;;;;;7.22;6.72;;;;;;;;;;5024407;28;20846;-87
2023/05/14 01:54:16;;;;;;;6.57;6.15;;;;;;;;;;5034122;28;20391;-87
2023/05/14 01:56:42;;;;;;;6.40;6.00;;;;;;;;;;5031213;28;20385;-86
2023/05/14 01:59:08;;;;;;;6.95;6.45;;;;;;;;;;5033770;28;20740;-86
2023/05/14 02:01:34;;;;;;;6.95;6.50;;;;;;;;;;5033842;28;20395;-86
2023/05/14 02:04:00;;;;;;;6.73;6.33;;;;;;;;;;5034001;28;20812;-87
2023/05/14 02:06:26;;;;;;;6.85;6.35;;;;;;;;;;5031624;28;20410;-87
2023/05/14 02:08:52;;;;;;;7.35;6.82;;;;;;;;;;5033359;28;20379;-86
2023/05/14 02:11:19;;;;;;;6.53;6.07;;;;;;;;;;5029281;28;20437;-86
2023/05/14 02:13:45;;;;;;;6.53;6.10;;;;;;;;;;5030543;28;20421;-87
2023/05/14 02:16:11;;;;;;;7.32;6.85;;;;;;;;;;5032639;28;20418;-86
2023/05/14 02:18:36;;;;;;;6.72;6.22;;;;;;;;;;5033943;28;20387;-86
2023/05/14 02:21:02;;;;;;;6.80;6.40;;;;;;;;;;5032306;28;20398;-86
2023/05/14 02:23:28;;;;;;;6.35;5.93;;;;;;;;;;5032802;28;20448;-86
2023/05/14 02:25:54;;;;;;;6.50;6.03;;;;;;;;;;5033444;28;20383;-87
2023/05/14 02:28:20;;;;;;;6.80;6.40;;;;;;;;;;5033583;28;20419;-86
2023/05/14 02:30:46;;;;;;;6.68;6.13;;;;;;;;;;5033295;28;20886;-87
2023/05/14 02:33:12;;;;;;;6.43;6.03;;;;;;;;;;5033675;28;20383;-87
2023/05/14 02:35:38;;;;;;;6.70;6.30;;;;;;;;;;5033357;28;20375;-87
2023/05/14 02:38:05;;;;;;;6.10;5.70;;;;;;;;;;5033281;28;21007;-86
2023/05/14 02:40:31;;;;;;;6.67;6.17;;;;;;;;;;5033359;28;20462;-87
2023/05/14 02:42:57;;;;;;;6.57;6.15;;;;;;;;;;5033187;28;22592;-86
2023/05/14 02:45:23;;;;;;;6.65;6.13;;;;;;;;;;5030425;28;20382;-87
2023/05/14 02:47:49;;;;;;;7.20;6.63;;;;;;;;;;5046630;28;20376;-86
2023/05/14 02:50:15;;;;;;;7.43;6.85;;;;;;;;;;5032990;28;20390;-86
2023/05/14 02:52:41;;;;;;;7.50;6.90;;;;;;;;;;5032755;28;20383;-87
2023/05/14 02:55:07;;;;;;;6.50;6.10;;;;;;;;;;5029431;28;20417;-87
2023/05/14 02:57:33;;;;;;;6.93;6.43;;;;;;;;;;5020825;28;20397;-87
2023/05/14 02:59:59;;;;;;;7.05;6.65;;;;;;;;;;5029279;28;20391;-86
2023/05/14 03:02:25;;;;;;;6.67;6.27;;;;;;;;;;5032532;28;20379;-86
2023/05/14 03:04:51;;;;;;;6.47;5.97;;;;;;;;;;5032464;28;20438;-86
2023/05/14 03:07:17;;;;;;;6.53;6.13;;;;;;;;;;5031399;28;20395;-86
2023/05/14 03:09:44;;;;;;;6.60;6.13;;;;;;;;;;5032554;28;20383;-86
2023/05/14 03:12:10;;;;;;;6.68;6.18;;;;;;;;;;5032697;28;20406;-86
2023/05/14 03:14:36;;;;;;;6.40;6.00;;;;;;;;;;5032512;28;20432;-86
2023/05/14 03:17:02;;;;;;;6.30;5.90;;;;;;;;;;5032531;28;20383;-87
2023/05/14 03:19:28;;;;;;;7.53;6.90;;;;;;;;;;5032314;28;20391;-86
2023/05/14 03:21:54;;;;;;;6.15;5.75;;;;;;;;;;5032349;28;20397;-88
2023/05/14 03:24:20;;;;;;;6.47;6.07;;;;;;;;;;5032435;28;20414;-87
2023/05/14 03:26:46;;;;;;;6.50;6.07;;;;;;;;;;5032246;28;20387;-85
2023/05/14 03:29:15;;;;;;;6.20;5.80;;;;;;;;;;5032377;28;20375;-86
2023/05/14 03:31:42;;;;;;;6.55;6.05;;;;;;;;;;5032161;28;20870;-86
2023/05/14 03:34:08;;;;;;;6.70;6.20;;;;;;;;;;5032167;28;20422;-87
2023/05/14 03:36:35;;;;;;;6.43;6.00;;;;;;;;;;5032082;28;20419;-87
2023/05/14 03:39:01;;;;;;;6.93;6.50;;;;;;;;;;5032144;28;20379;-86
2023/05/14 03:41:27;;;;;;;7.20;6.60;;;;;;;;;;5032096;28;20869;-86
2023/05/14 03:43:53;;;;;;;6.68;6.18;;;;;;;;;;5032059;28;20461;-86
2023/05/14 03:46:19;;;;;;;5.93;5.53;;;;;;;;;;5032058;28;20880;-86
2023/05/14 03:48:45;;;;;;;6.20;5.72;;;;;;;;;;5030321;28;20379;-86
2023/05/14 03:51:11;;;;;;;6.57;6.18;;;;;;;;;;5031579;28;20379;-86
2023/05/14 03:53:37;;;;;;;6.00;5.50;;;;;;;;;;5031837;28;20385;-86
2023/05/14 03:56:03;;;;;;;6.80;6.30;;;;;;;;;;5031614;28;20391;-86
2023/05/14 03:58:29;;;;;;;7.07;6.57;;;;;;;;;;5030179;28;20438;-86
2023/05/14 04:00:55;;;;;;;6.30;5.90;;;;;;;;;;5031710;28;20390;-86
2023/05/14 04:03:21;;;;;;;6.70;6.30;;;;;;;;;;5025893;28;20998;-86
2023/05/14 04:05:47;;;;;;;6.75;6.35;;;;;;;;;;5020572;28;20395;-86
2023/05/14 04:08:13;;;;;;;6.87;6.40;;;;;;;;;;5046215;28;20437;-86
2023/05/14 04:10:39;;;;;;;6.97;6.47;;;;;;;;;;5031014;28;20391;-86
2023/05/14 04:13:05;;;;;;;6.28;5.88;;;;;;;;;;5031691;28;20797;-86
2023/05/14 04:15:31;;;;;;;6.53;6.03;;;;;;;;;;5031625;28;20390;-86
2023/05/14 04:17:57;;;;;;;6.25;5.85;;;;;;;;;;5031988;28;20807;-86
2023/05/14 04:20:23;;;;;;;6.45;6.00;;;;;;;;;;5032146;28;20467;-86
2023/05/14 04:22:49;;;;;;;6.05;5.70;;;;;;;;;;5031654;28;20395;-86
2023/05/14 04:25:17;;;;;;;6.40;6.00;;;;;;;;;;5031792;28;20387;-86
2023/05/14 04:27:43;;;;;;;6.30;5.90;;;;;;;;;;5031693;28;20379;-86
2023/05/14 04:30:09;;;;;;;6.85;6.35;;;;;;;;;;5031820;28;20471;-86
2023/05/14 04:32:35;;;;;;;6.60;6.18;;;;;;;;;;5031656;28;20386;-86
2023/05/14 04:35:01;;;;;;;6.72;6.32;;;;;;;;;;5031732;28;20908;-86
2023/05/14 04:37:27;;;;;;;6.40;5.90;;;;;;;;;;5031712;28;20474;-86
2023/05/14 04:39:53;;;;;;;6.22;5.88;;;;;;;;;;5030782;28;20394;-86
2023/05/14 04:42:20;;;;;;;6.97;6.47;;;;;;;;;;5027355;28;20395;-86
2023/05/14 04:44:46;;;;;;;6.70;6.30;;;;;;;;;;5031493;28;20921;-86
2023/05/14 04:47:12;;;;;;;7.05;6.60;;;;;;;;;;5031301;28;20390;-86
2023/05/14 04:49:38;;;;;;;7.35;6.85;;;;;;;;;;5029741;28;20375;-86
2023/05/14 04:52:04;;;;;;;7.22;6.82;;;;;;;;;;5030973;28;20890;-87
2023/05/14 04:54:30;;;;;;;6.75;6.35;;;;;;;;;;5031079;28;20470;-87
2023/05/14 04:56:56;;;;;;;6.60;6.20;;;;;;;;;;5029846;28;20474;-87
2023/05/14 04:59:22;;;;;;;6.95;6.45;;;;;;;;;;5031091;28;20406;-86
2023/05/14 05:01:48;;;;;;;7.60;6.90;;;;;;;;;;5028932;28;20881;-86
2023/05/14 05:04:14;;;;;;;7.55;7.05;;;;;;;;;;5024764;28;20889;-86
2023/05/14 05:06:40;;;;;;;7.20;6.60;;;;;;;;;;5030816;28;20453;-86
2023/05/14 05:09:07;;;;;;;6.93;6.53;;;;;;;;;;5030412;28;20379;-86
2023/05/14 05:11:33;;;;;;;7.28;6.78;;;;;;;;;;5030786;28;20387;-86
2023/05/14 05:13:59;;;;;;;7.45;6.95;;;;;;;;;;5030618;28;20391;-85
2023/05/14 05:16:25;;;;;;;8.60;8.00;;;;;;;;;;5031184;28;20470;-85
2023/05/14 05:18:51;;;;;;;8.50;8.00;;;;;;;;;;5029639;28;20481;-85
2023/05/14 05:21:17;;;;;;;8.23;7.70;;;;;;;;;;5033917;28;20792;-84
2023/05/14 05:23:43;;;;;;;8.18;7.57;;;;;;;;;;5033882;28;20411;-85
2023/05/14 05:26:09;;;;;;;8.40;7.88;;;;;;;;;;5033175;28;20394;-85
2023/05/14 05:28:35;;;;;;;9.30;8.55;;;;;;;;;;5034770;28;20850;-84
2023/05/14 05:31:01;;;;;;;9.93;9.32;;;;;;;;;;5033780;28;20383;-84
2023/05/14 05:33:27;;;;;;;9.55;8.95;;;;;;;;;;5033216;28;20931;-85
2023/05/14 05:35:53;;;;;;;10.27;9.57;;;;;;;;;;5034007;28;20383;-85
2023/05/14 05:38:19;;;;;;;13.18;12.18;;;;;;;;;;5034403;28;20374;-85
2023/05/14 05:40:45;;;;;;;11.70;10.85;;;;;;;;;;5034364;28;20745;-84
2023/05/14 05:43:12;;;;;;;10.77;10.07;;;;;;;;;;5034078;28;20494;-88
2023/05/14 05:45:38;;;;;;;11.00;10.20;;;;;;;;;;5033752;28;20382;-86
2023/05/14 05:48:05;;;;;;;10.27;9.57;;;;;;;;;;5032642;28;20410;-86
2023/05/14 05:50:31;;;;;;;11.07;10.35;;;;;;;;;;5034111;28;20375;-86
2023/05/14 05:52:59;;;;;;;10.60;9.90;;;;;;;;;;5032614;28;20861;-84
2023/05/14 05:55:25;;;;;;;10.48;9.70;;;;;;;;;;5033713;28;20470;-84
2023/05/14 05:57:51;;;;;;;10.02;9.43;;;;;;;;;;5033814;28;20413;-86
2023/05/14 06:00:18;;;;;;;9.48;8.88;;;;;;;;;;5032981;28;20384;-85
2023/05/14 06:02:44;;;;;;;10.37;9.67;;;;;;;;;;5033944;28;20457;-85
2023/05/14 06:05:10;;;;;;;9.88;9.18;;;;;;;;;;5032807;28;20390;-84
2023/05/14 06:07:36;;;;;;;10.80;10.10;;;;;;;;;;5033519;28;20391;-84
2023/05/14 06:10:02;;;;;;;10.77;9.98;;;;;;;;;;5033289;28;20391;-84
2023/05/14 06:12:28;;;;;;;10.88;9.98;;;;;;;;;;5033586;28;20389;-86
2023/05/14 06:14:56;;;;;;;11.27;10.53;;;;;;;;;;5033512;28;20481;-86
2023/05/14 06:17:22;;;;;;;11.05;10.30;;;;;;;;;;5033172;28;20395;-86
2023/05/14 06:19:48;;;;;;;11.43;10.63;;;;;;;;;;5032712;28;20390;-85
2023/05/14 06:22:15;;;;;;;12.35;11.48;;;;;;;;;;5033480;28;20383;-85
2023/05/14 06:24:40;;;;;;;12.90;12.00;;;;;;;;;;5033487;28;20489;-85
2023/05/14 06:27:06;;;;;;;11.75;10.95;;;;;;;;;;5033557;28;20459;-85
2023/05/14 06:29:33;;;;;;;11.60;10.80;;;;;;;;;;5032639;28;20387;-85
2023/05/14 06:32:02;;;;;;;11.68;10.77;;;;;;;;;;5048223;28;20390;-85
2023/05/14 06:34:28;;;;;;;11.52;10.73;;;;;;;;;;5032568;28;20391;-85
2023/05/14 06:36:54;;;;;;;11.82;11.02;;;;;;;;;;5033478;28;20438;-84
2023/05/14 06:39:20;;;;;;;11.52;10.73;;;;;;;;;;5033481;28;20430;-84
2023/05/14 06:41:46;;;;;;;11.20;10.40;;;;;;;;;;5033416;28;20407;-84
2023/05/14 06:44:12;;;;;;;11.63;10.80;;;;;;;;;;5033279;28;20442;-84
2023/05/14 06:46:38;;;;;;;11.98;11.07;;;;;;;;;;5033122;28;20440;-84
2023/05/14 06:49:04;;;;;;;11.90;11.07;;;;;;;;;;5033035;28;20458;-84
2023/05/14 06:51:31;;;;;;;13.07;12.07;;;;;;;;;;5023234;28;20384;-83
2023/05/14 06:53:57;;;;;;;13.32;12.32;;;;;;;;;;5031868;28;20379;-84
2023/05/14 06:56:23;;;;;;;11.77;10.95;;;;;;;;;;5032380;28;20379;-84
2023/05/14 06:58:49;;;;;;;12.27;11.48;;;;;;;;;;5032353;28;20468;-84
2023/05/14 07:01:16;;;;;;;12.40;11.48;;;;;;;;;;5032294;28;20390;-84
2023/05/14 07:03:42;;;;;;;11.77;10.98;;;;;;;;;;5023501;28;20767;-84
2023/05/14 07:06:08;;;;;;;11.00;10.30;;;;;;;;;;5021667;28;20410;-81
2023/05/14 07:08:34;;;;;;;12.23;11.40;;;;;;;;;;5031062;28;20408;-81
2023/05/14 07:11:00;;;;;;;12.57;11.68;;;;;;;;;;5032547;28;20414;-81
2023/05/14 07:13:27;;;;;;;13.90;12.83;;;;;;;;;;5031066;28;20426;-81
2023/05/14 07:15:54;;;;;;;13.93;12.93;;;;;;;;;;5032675;28;20394;-81
2023/05/14 07:18:21;;;;;;;18.83;17.15;;;;;;;;;;5032798;28;20389;-80
2023/05/14 07:20:47;;;;;;;16.02;14.77;;;;;;;;;;5034051;28;20419;-81
2023/05/14 07:23:13;;;;;;;18.48;16.98;;;;;;;;;;5032574;28;20893;-81
2023/05/14 07:25:39;;;;;;;16.98;15.65;;;;;;;;;;5032351;28;20379;-80
2023/05/14 07:28:05;;;;;;;16.57;15.27;;;;;;;;;;5032626;28;20376;-80
2023/05/14 07:30:31;;;;;;;18.50;17.00;;;;;;;;;;5032407;28;20458;-81
2023/05/14 07:32:57;;;;;;;16.92;15.60;;;;;;;;;;5032316;28;20908;-80
2023/05/14 07:35:23;;;;;;;17.80;16.30;;;;;;;;;;5032363;28;20406;-80
2023/05/14 07:37:49;;;;;;;16.63;15.32;;;;;;;;;;5032278;28;20793;-81
2023/05/14 07:40:15;;;;;;;15.85;14.73;;;;;;;;;;5032368;28;20444;-80
2023/05/14 07:42:41;;;;;;;12.77;11.88;;;;;;;;;;5031017;28;20398;-81
2023/05/14 07:45:08;;;;;;;12.77;11.87;;;;;;;;;;5032258;28;20896;-81
2023/05/14 07:47:34;;;;;;;11.45;10.65;;;;;;;;;;5032117;28;20972;-81
2023/05/14 07:50:00;;;;;;;11.05;10.25;;;;;;;;;;5032030;28;20414;-81
2023/05/14 07:52:26;;;;;;;10.82;10.10;;;;;;;;;;5031074;28;20418;-80
2023/05/14 07:54:52;;;;;;;10.82;10.13;;;;;;;;;;5030614;28;20406;-81
2023/05/14 07:57:19;;;;;;;11.40;10.63;;;;;;;;;;5031613;28;20789;-80
2023/05/14 07:59:45;;;;;;;13.77;12.77;;;;;;;;;;5031382;28;20383;-80
2023/05/14 08:02:11;;;;;;;11.80;11.00;;;;;;;;;;5030419;28;20397;-80
2023/05/14 08:04:38;;;;;;;13.85;12.85;;;;;;;;;;5031654;28;20817;-80
2023/05/14 08:07:04;;;;;;;12.75;11.85;;;;;;;;;;5031703;28;20457;-80
2023/05/14 08:09:30;;;;;;;11.48;10.70;;;;;;;;;;5031989;28;20440;-80
2023/05/14 08:11:56;;;;;;;11.60;10.80;;;;;;;;;;5031749;28;20375;-80
2023/05/14 08:14:22;;;;;;;12.27;11.38;;;;;;;;;;5031893;28;20797;-80
2023/05/14 08:16:48;;;;;;;12.43;11.43;;;;;;;;;;5032018;28;20375;-80
2023/05/14 08:19:15;;;;;;;12.80;11.90;;;;;;;;;;5032044;28;20433;-80
2023/05/14 08:21:41;;;;;;;14.73;13.73;;;;;;;;;;5031509;28;20406;-80
2023/05/14 08:24:07;;;;;;;14.60;13.55;;;;;;;;;;5031727;28;20402;-80
2023/05/14 08:26:33;;;;;;;15.27;13.88;;;;;;;;;;5030810;28;20371;-80
2023/05/14 08:28:59;;;;;;;14.65;13.55;;;;;;;;;;5031857;28;20376;-80
2023/05/14 08:31:25;;;;;;;14.13;13.13;;;;;;;;;;5031700;28;20394;-80
2023/05/14 08:33:51;;;;;;;13.87;12.77;;;;;;;;;;5031794;28;20925;-80
2023/05/14 08:36:17;;;;;;;17.08;15.77;;;;;;;;;;5031524;28;20391;-81
2023/05/14 08:38:44;;;;;;;15.70;14.55;;;;;;;;;;5031721;28;20387;-80
2023/05/14 08:41:10;;;;;;;16.30;15.00;;;;;;;;;;5031602;28;20899;-80
2023/05/14 08:43:39;;;;;;;16.10;14.80;;;;;;;;;;5032136;28;20761;-80
2023/05/14 08:46:06;;;;;;;15.82;14.65;;;;;;;;;;5031386;28;20375;-80
2023/05/14 08:48:33;;;;;;;18.15;16.75;;;;;;;;;;5031653;28;20391;-80
2023/05/14 08:50:59;;;;;;;17.15;15.77;;;;;;;;;;5030380;28;20947;-80
2023/05/14 08:53:25;;;;;;;14.88;13.77;;;;;;;;;;5033800;28;20395;-80
2023/05/14 08:55:53;;;;;;;15.98;14.80;;;;;;;;;;5034148;28;20928;-80
2023/05/14 08:58:19;;;;;;;14.80;13.70;;;;;;;;;;5034795;28;20387;-80
2023/05/14 09:00:45;;;;;;;16.58;15.38;;;;;;;;;;5033084;28;20387;-81
2023/05/14 09:03:12;;;;;;;17.77;16.38;;;;;;;;;;5034661;28;20460;-80
2023/05/14 09:05:38;;;;;;;18.55;17.05;;;;;;;;;;5034556;28;20462;-80
2023/05/14 09:08:04;;;;;;;17.40;16.00;;;;;;;;;;5035132;28;20386;-81
2023/05/14 09:10:31;;;;;;;16.40;15.05;;;;;;;;;;5034936;28;20379;-81
2023/05/14 09:12:57;;;;;;;18.27;16.83;;;;;;;;;;5035280;28;20375;-81
2023/05/14 09:15:25;;;;;;;18.77;17.27;;;;;;;;;;5041208;28;20419;-81
2023/05/14 09:17:52;;;;;;;18.02;16.63;;;;;;;;;;5021223;28;20383;-81
2023/05/14 09:20:18;;;;;;;18.17;16.77;;;;;;;;;;5035315;28;20406;-81
2023/05/14 09:22:44;;;;;;;19.30;17.70;;;;;;;;;;5034781;28;20383;-81
2023/05/14 09:25:13;;;;;;;19.10;17.60;;;;;;;;;;5033927;28;20407;-81
2023/05/14 09:27:39;;;;;;;19.95;18.27;;;;;;;;;;5034550;28;20498;-81
2023/05/14 09:30:09;;;;;;;18.98;17.48;;;;;;;;;;5035048;28;20910;-81
2023/05/14 09:32:39;;;;;;;19.93;18.23;;;;;;;;;;5034590;28;20874;-81
2023/05/14 09:35:16;;;;;;;19.58;17.88;;;;;;;;;;5034547;28;20379;-81
2023/05/14 09:37:43;;;;;;;21.45;19.42;;;;;;;;;;5034389;28;20410;-81
2023/05/14 09:40:09;;;;;;;20.37;18.63;;;;;;;;;;5034984;28;20398;-81
2023/05/14 09:42:35;;;;;;;19.77;18.02;;;;;;;;;;5034529;28;20383;-81
2023/05/14 09:45:03;;;;;;;18.07;16.67;;;;;;;;;;5034205;28;20457;-81
2023/05/14 09:47:30;;;;;;;18.52;16.92;;;;;;;;;;5034393;28;20382;-81
2023/05/14 09:49:56;;;;;;;17.07;15.67;;;;;;;;;;5034354;28;20782;-81
2023/05/14 09:52:23;;;;;;;17.58;16.08;;;;;;;;;;5034345;28;20391;-81
2023/05/14 09:54:51;;;;;;;14.38;13.18;;;;;;;;;;5034138;28;20397;-81
2023/05/14 09:57:17;;;;;;;14.98;13.85;;;;;;;;;;5032975;28;20387;-80
2023/05/14 09:59:43;;;;;;;14.77;13.68;;;;;;;;;;5033875;28;20379;-81
2023/05/14 10:02:25;;;;;;;15.27;13.98;;;;;;;;;;5033630;28;20850;-80
2023/05/14 10:04:53;;;;;;;15.90;14.50;;;;;;;;;;5032784;28;20406;-81
2023/05/14 10:07:22;;;;;;;15.02;13.82;;;;;;;;;;5033141;28;20403;-81
2023/05/14 10:09:51;;;;;;;15.50;14.30;;;;;;;;;;5033476;28;20419;-81
2023/05/14 10:12:20;;;;;;;15.48;14.38;;;;;;;;;;5033954;28;20383;-81
2023/05/14 10:14:48;;;;;;;15.05;13.95;;;;;;;;;;5034367;28;20390;-81
2023/05/14 10:17:17;;;;;;;14.70;13.60;;;;;;;;;;5034195;28;20387;-81
2023/05/14 10:19:46;;;;;;;14.82;13.82;;;;;;;;;;5033967;28;20394;-81
2023/05/14 10:22:12;;;;;;;14.85;13.75;;;;;;;;;;5033760;28;20395;-81
2023/05/14 10:24:38;;;;;;;16.05;14.65;;;;;;;;;;5033695;28;20508;-81
2023/05/14 10:27:04;;;;;;;13.65;12.65;;;;;;;;;;5033717;28;20888;-81
2023/05/14 10:29:34;;;;;;;14.43;13.43;;;;;;;;;;5033559;28;20387;-81
2023/05/14 10:32:05;;;;;;;12.77;11.88;;;;;;;;;;5032425;28;20387;-81
2023/05/14 10:34:37;;;;;;;11.88;11.10;;;;;;;;;;5033541;28;20379;-81
2023/05/14 10:37:07;;;;;;;10.93;10.10;;;;;;;;;;5033426;28;20429;-81
2023/05/14 10:39:40;;;;;;;11.60;10.80;;;;;;;;;;5039181;28;20379;-81
2023/05/14 10:42:06;;;;;;;10.57;9.85;;;;;;;;;;5033381;28;20490;-81
2023/05/14 10:44:34;;;;;;;11.43;10.43;;;;;;;;;;5033035;28;20984;-81
2023/05/14 10:47:01;;;;;;;12.30;11.40;;;;;;;;;;5040385;28;20469;-81
2023/05/14 10:49:27;;;;;;;11.65;10.82;;;;;;;;;;5033207;28;20391;-81
2023/05/14 10:51:53;;;;;;;10.48;9.77;;;;;;;;;;5033137;28;20417;-81
2023/05/14 10:54:19;;;;;;;10.60;9.90;;;;;;;;;;5033277;28;20811;-81
2023/05/14 10:56:45;;;;;;;11.00;10.10;;;;;;;;;;5032883;28;20452;-81
2023/05/14 10:59:11;;;;;;;10.98;10.18;;;;;;;;;;5031757;28;20458;-81
2023/05/14 11:01:40;;;;;;;10.40;9.70;;;;;;;;;;5032549;28;20474;-82
2023/05/14 11:04:06;;;;;;;10.68;9.98;;;;;;;;;;5030652;28;20506;-82
2023/05/14 11:06:32;;;;;;;9.90;9.10;;;;;;;;;;5031387;28;20419;-81
2023/05/14 11:09:00;;;;;;;10.47;9.77;;;;;;;;;;5032449;28;20390;-81
2023/05/14 11:11:26;;;;;;;10.32;9.63;;;;;;;;;;5032740;28;20382;-81
2023/05/14 11:13:53;;;;;;;10.32;9.68;;;;;;;;;;5032594;28;20375;-81
2023/05/14 11:16:22;;;;;;;10.27;9.27;;;;;;;;;;5025628;28;20387;-81
2023/05/14 11:18:52;;;;;;;10.33;9.63;;;;;;;;;;5032692;28;20375;-81
2023/05/14 11:21:18;;;;;;;9.80;9.10;;;;;;;;;;5032585;28;20379;-81
2023/05/14 11:23:46;;;;;;;9.40;8.70;;;;;;;;;;5032520;28;20410;-83
2023/05/14 11:26:12;;;;;;;8.80;8.20;;;;;;;;;;5028533;28;20486;-83
2023/05/14 11:28:38;;;;;;;8.20;7.60;;;;;;;;;;5027540;28;20395;-84
2023/05/14 11:31:04;;;;;;;8.80;8.10;;;;;;;;;;5032289;28;20375;-83
2023/05/14 11:33:31;;;;;;;8.25;7.60;;;;;;;;;;5035951;28;20385;-84
2023/05/14 11:35:57;;;;;;;8.02;7.47;;;;;;;;;;5031673;28;20479;-83
2023/05/14 11:38:23;;;;;;;8.23;7.70;;;;;;;;;;5030925;28;20486;-85
2023/05/14 11:40:52;;;;;;;7.35;6.85;;;;;;;;;;5031393;28;20482;-83
2023/05/14 11:43:18;;;;;;;7.60;7.07;;;;;;;;;;5031788;28;20407;-83
2023/05/14 11:45:49;;;;;;;7.18;6.68;;;;;;;;;;5031242;28;20876;-86
2023/05/14 12:22:34;;;;;;;7.10;6.60;;;;;;;;;;5065796;28;20353;-83
2023/05/14 12:25:00;;;;;;;7.03;6.53;;;;;;;;;;5059449;28;20418;-83
2023/05/14 12:27:27;;;;;;;7.45;6.95;;;;;;;;;;5052217;28;20413;-82
2023/05/14 12:30:03;;;;;;;7.57;7.07;;;;;;;;;;5057791;28;20973;-82
2023/05/14 12:32:32;;;;;;;7.70;7.20;;;;;;;;;;5049125;28;20401;-83
2023/05/14 12:35:00;;;;;;;7.20;6.70;;;;;;;;;;5049485;28;20432;-83
2023/05/14 12:50:00;;;;;;;6.53;6.03;;;;;;;;;;5109375;27;20366;-83
2023/05/14 12:52:26;;;;;;;6.55;6.15;;;;;;;;;;5093256;28;20387;-84
2023/05/14 12:54:52;;;;;;;6.30;5.90;;;;;;;;;;5087466;28;20448;-83
2023/05/14 12:57:18;;;;;;;6.07;5.68;;;;;;;;;;5095976;28;20739;-82
2023/05/14 12:59:44;;;;;;;5.22;4.68;;;;;;;;;;5098493;28;20382;-83
2023/05/14 13:02:10;;;;;;;4.50;4.20;;;;;;;;;;5089452;28;20883;-83
2023/05/14 13:04:37;;;;;;;4.65;4.35;;;;;;;;;;5094555;28;20726;-83
2023/05/14 13:07:03;;;;;;;4.40;4.10;;;;;;;;;;5089815;28;20741;-83
2023/05/14 13:09:29;;;;;;;4.50;4.20;;;;;;;;;;5085014;28;20405;-83
2023/05/14 13:11:55;;;;;;;5.20;4.70;;;;;;;;;;5087515;28;20371;-83
2023/05/14 13:14:21;;;;;;;5.00;4.60;;;;;;;;;;5087733;28;20850;-83
2023/05/14 13:16:47;;;;;;;4.00;3.70;;;;;;;;;;5101858;28;20377;-83
2023/05/14 13:19:13;;;;;;;4.43;4.13;;;;;;;;;;5096214;28;20764;-83
2023/05/14 13:21:39;;;;;;;4.18;3.88;;;;;;;;;;5088507;28;20406;-83
2023/05/14 13:24:05;;;;;;;4.45;4.05;;;;;;;;;;5088693;28;20411;-84
2023/05/14 13:26:31;;;;;;;3.97;3.78;;;;;;;;;;5088442;28;20375;-82
2023/05/14 13:28:57;;;;;;;4.22;3.92;;;;;;;;;;5097405;28;20728;-82
2023/05/14 13:31:23;;;;;;;3.70;3.40;;;;;;;;;;5101932;28;20432;-82
2023/05/14 13:33:49;;;;;;;4.20;3.80;;;;;;;;;;5102607;28;20464;-82
2023/05/14 13:36:15;;;;;;;4.22;3.92;;;;;;;;;;5103264;28;20398;-82
2023/05/14 13:38:41;;;;;;;3.70;3.40;;;;;;;;;;5106121;28;20431;-82
2023/05/14 13:41:07;;;;;;;3.60;3.30;;;;;;;;;;5103240;28;20381;-82
2023/05/14 13:43:34;;;;;;;3.40;3.20;;;;;;;;;;5106088;28;20378;-82
2023/05/14 13:46:01;;;;;;;3.20;3.00;;;;;;;;;;5092606;28;20375;-81
2023/05/14 13:48:27;;;;;;;3.63;3.42;;;;;;;;;;5106462;28;20751;-82
2023/05/14 13:50:53;;;;;;;5.70;5.30;;;;;;;;;;5095321;28;20374;-81
2023/05/14 13:53:20;;;;;;;5.35;4.85;;;;;;;;;;5081128;28;20376;-82
2023/05/14 13:55:46;;;;;;;4.97;4.68;;;;;;;;;;5083714;28;20740;-82
2023/05/14 13:58:13;;;;;;;5.03;4.72;;;;;;;;;;5079987;28;20415;-82
2023/05/14 14:00:39;;;;;;;5.57;5.18;;;;;;;;;;5082145;28;20384;-82
2023/05/14 14:03:05;;;;;;;5.47;5.13;;;;;;;;;;5076264;28;20464;-82
2023/05/14 14:05:31;;;;;;;5.57;5.07;;;;;;;;;;5080861;28;20405;-84
2023/05/14 14:07:57;;;;;;;5.22;4.93;;;;;;;;;;5073541;28;20422;-82
2023/05/14 14:10:23;;;;;;;4.70;4.40;;;;;;;;;;5075986;28;20375;-83
2023/05/14 14:12:49;;;;;;;5.38;4.97;;;;;;;;;;5089830;28;20377;-83
2023/05/14 14:15:15;;;;;;;5.05;4.75;;;;;;;;;;5086508;28;20758;-83
2023/05/14 14:17:41;;;;;;;5.05;4.75;;;;;;;;;;5087813;28;20405;-84
2023/05/14 14:20:08;;;;;;;5.20;4.90;;;;;;;;;;5082019;28;20376;-84
2023/05/14 14:22:34;;;;;;;4.80;4.50;;;;;;;;;;5079614;28;20372;-84
2023/05/14 14:25:00;;;;;;;5.00;4.60;;;;;;;;;;5081040;28;20471;-83
2023/05/14 14:27:26;;;;;;;5.22;4.82;;;;;;;;;;5076098;28;20388;-83
2023/05/14 14:29:52;;;;;;;4.75;4.45;;;;;;;;;;5079089;28;20379;-82
2023/05/14 14:32:19;;;;;;;5.38;5.00;;;;;;;;;;5080133;28;20745;-82
2023/05/14 14:34:45;;;;;;;4.63;4.32;;;;;;;;;;5076308;28;20483;-84
2023/05/14 14:37:11;;;;;;;3.17;2.97;;;;;;;;;;5084924;28;20407;-82
2023/05/14 14:39:37;;;;;;;2.58;1.65;;;;;;;;;;5071362;28;20391;-84
2023/05/14 14:42:03;;;;;;;1.77;1.30;;;;;;;;;;5084279;28;20393;-81
2023/05/14 14:44:29;;;;;;;2.80;1.35;;;;;;;;;;5086019;28;20421;-85
2023/05/14 14:46:55;;;;;;;1.90;1.63;;;;;;;;;;5086746;28;20488;-84
2023/05/14 14:49:21;;;;;;;2.50;1.50;;;;;;;;;;5089246;28;20401;-85
2023/05/14 14:51:47;;;;;;;4.32;1.60;;;;;;;;;;5075355;28;20928;-84
2023/05/14 14:54:13;;;;;;;3.63;1.50;;;;;;;;;;5076929;28;20742;-84
2023/05/14 14:56:39;;;;;;;3.92;1.23;;;;;;;;;;5079995;28;20384;-84
2023/05/14 14:59:05;;;;;;;1.83;1.10;;;;;;;;;;5079781;28;20454;-83
2023/05/14 15:01:31;;;;;;;1.52;1.08;;;;;;;;;;5090678;28;20789;-89
2023/05/14 15:03:57;;;;;;;1.30;1.10;;;;;;;;;;5080191;28;20376;-88
2023/05/14 15:06:23;;;;;;;1.70;1.23;;;;;;;;;;5075715;28;20410;-88
2023/05/14 15:08:49;;;;;;;1.92;1.10;;;;;;;;;;5073751;28;20386;-89
2023/05/14 15:11:15;;;;;;;4.05;1.50;;;;;;;;;;5076316;28;20380;-89
2023/05/14 15:13:41;;;;;;;2.67;1.60;;;;;;;;;;5075401;28;20458;-89
2023/05/14 15:16:08;;;;;;;1.80;1.70;;;;;;;;;;5081042;28;20456;-84